createdAt,value
2022-11-01T00:00:20.968Z,1011.83
2022-11-01T00:02:22.517Z,1011.72
2022-11-01T00:03:30.186Z,1011.71
2022-11-01T00:04:30.979Z,1011.71
2022-11-01T00:05:32.726Z,1011.68
2022-11-01T00:06:30.725Z,1011.68
2022-11-01T00:07:30.420Z,1011.80
2022-11-01T00:08:30.982Z,1011.84
2022-11-01T00:09:22.424Z,1011.85
2022-11-01T00:10:22.380Z,1011.87
2022-11-01T00:11:22.483Z,1011.90
2022-11-01T00:12:30.372Z,1011.87
2022-11-01T00:14:32.736Z,1011.74
2022-11-01T00:15:32.679Z,1011.77
2022-11-01T00:16:42.432Z,1011.72
2022-11-01T00:17:40.418Z,1011.72
2022-11-01T00:19:53.986Z,1011.79
2022-11-01T00:21:02.583Z,1011.79
2022-11-01T00:22:02.618Z,1011.84
2022-11-01T00:23:03.989Z,1011.80
2022-11-01T00:24:02.626Z,1011.80
2022-11-01T00:25:03.724Z,1011.84
2022-11-01T00:26:01.843Z,1011.79
2022-11-01T00:27:02.526Z,1011.79
2022-11-01T00:28:04.332Z,1011.73
2022-11-01T00:29:01.459Z,1011.75
2022-11-01T00:31:11.871Z,1011.67
2022-11-01T00:32:16.830Z,1011.57
2022-11-01T00:34:20.493Z,1011.63
2022-11-01T00:35:29.199Z,1011.56
2022-11-01T00:37:32.416Z,1011.47
2022-11-01T00:38:40.948Z,1011.42
2022-11-01T00:39:41.500Z,1011.43
2022-11-01T00:41:49.113Z,1011.52
2022-11-01T00:42:57.276Z,1011.60
2022-11-01T00:44:59.402Z,1011.40
2022-11-01T00:47:13.879Z,1011.40
2022-11-01T00:49:06.653Z,1011.45
2022-11-01T00:50:06.641Z,1011.39
2022-11-01T00:51:06.691Z,1011.45
2022-11-01T00:52:06.632Z,1011.47
2022-11-01T00:53:06.581Z,1011.41
2022-11-01T00:55:28.419Z,1011.51
2022-11-01T00:56:38.123Z,1011.49
2022-11-01T00:57:36.142Z,1011.49
2022-11-01T00:59:50.125Z,1011.40
2022-11-01T01:00:58.802Z,1011.37
2022-11-01T01:01:59.101Z,1011.34
2022-11-01T01:02:50.085Z,1011.33
2022-11-01T01:04:00.590Z,1011.31
2022-11-01T01:06:00.387Z,1011.26
2022-11-01T01:07:09.263Z,1011.30
2022-11-01T01:08:09.141Z,1011.30
2022-11-01T01:09:00.347Z,1011.38
2022-11-01T01:10:00.343Z,1011.37
2022-11-01T01:11:00.403Z,1011.42
2022-11-01T01:12:00.304Z,1011.47
2022-11-01T01:13:10.007Z,1011.53
2022-11-01T01:14:00.312Z,1011.52
2022-11-01T01:15:00.277Z,1011.55
2022-11-01T01:16:08.893Z,1011.48
2022-11-01T01:17:10.162Z,1011.45
2022-11-01T01:18:08.930Z,1011.40
2022-11-01T01:19:09.007Z,1011.38
2022-11-01T01:21:17.581Z,1011.37
2022-11-01T01:22:26.866Z,1011.35
2022-11-01T01:23:17.558Z,1011.28
2022-11-01T01:25:28.945Z,1011.15
2022-11-01T01:26:37.513Z,1011.17
2022-11-01T01:27:28.864Z,1011.22
2022-11-01T01:28:28.829Z,1011.24
2022-11-01T01:29:28.804Z,1011.19
2022-11-01T01:30:37.478Z,1011.14
2022-11-01T01:31:38.353Z,1011.12
2022-11-01T01:32:39.681Z,1011.13
2022-11-01T01:33:37.473Z,1011.16
2022-11-01T01:34:28.828Z,1011.17
2022-11-01T01:35:28.749Z,1011.15
2022-11-01T01:36:37.325Z,1011.13
2022-11-01T01:37:36.258Z,1011.12
2022-11-01T01:38:28.675Z,1011.00
2022-11-01T01:39:37.722Z,1010.97
2022-11-01T01:40:28.694Z,1011.01
2022-11-01T01:42:39.124Z,1011.01
2022-11-01T01:43:47.885Z,1010.87
2022-11-01T01:45:49.480Z,1010.92
2022-11-01T01:48:03.186Z,1010.86
2022-11-01T01:49:11.328Z,1010.90
2022-11-01T01:50:11.383Z,1010.88
2022-11-01T01:52:13.151Z,1010.80
2022-11-01T01:54:24.428Z,1010.80
2022-11-01T01:56:35.879Z,1010.82
2022-11-01T01:57:44.334Z,1010.63
2022-11-01T01:58:35.733Z,1010.66
2022-11-01T01:59:43.302Z,1010.65
2022-11-01T02:01:47.241Z,1010.64
2022-11-01T02:02:58.935Z,1010.65
2022-11-01T02:03:58.751Z,1010.67
2022-11-01T02:06:03.695Z,1010.63
2022-11-01T02:07:12.349Z,1010.60
2022-11-01T02:08:03.895Z,1010.68
2022-11-01T02:09:03.639Z,1010.62
2022-11-01T02:12:25.452Z,1010.53
2022-11-01T02:13:33.189Z,1010.52
2022-11-01T02:14:33.979Z,1010.50
2022-11-01T02:15:25.296Z,1010.49
2022-11-01T02:16:25.304Z,1010.49
2022-11-01T02:17:35.516Z,1010.48
2022-11-01T02:18:33.903Z,1010.44
2022-11-01T02:20:40.344Z,1010.46
2022-11-01T02:22:47.324Z,1010.45
2022-11-01T02:23:47.247Z,1010.37
2022-11-01T02:24:55.886Z,1010.36
2022-11-01T02:25:55.078Z,1010.32
2022-11-01T02:26:56.066Z,1010.34
2022-11-01T02:27:54.821Z,1010.31
2022-11-01T02:29:58.565Z,1010.30
2022-11-01T02:32:08.888Z,1010.33
2022-11-01T02:33:20.563Z,1010.30
2022-11-01T02:34:16.772Z,1010.29
2022-11-01T02:36:19.162Z,1010.32
2022-11-01T02:37:19.235Z,1010.35
2022-11-01T02:39:29.557Z,1010.31
2022-11-01T02:40:37.112Z,1010.36
2022-11-01T02:41:29.585Z,1010.31
2022-11-01T02:43:39.914Z,1010.26
2022-11-01T02:44:39.803Z,1010.33
2022-11-01T02:45:51.018Z,1010.38
2022-11-01T02:46:39.824Z,1010.44
2022-11-01T02:47:39.833Z,1010.50
2022-11-01T02:48:39.807Z,1010.50
2022-11-01T02:50:50.123Z,1010.47
2022-11-01T02:51:59.785Z,1010.56
2022-11-01T02:52:50.097Z,1010.50
2022-11-01T02:53:58.714Z,1010.53
2022-11-01T02:54:50.083Z,1010.48
2022-11-01T02:57:00.446Z,1010.50
2022-11-01T02:58:00.683Z,1010.48
2022-11-01T02:59:07.953Z,1010.46
2022-11-01T03:00:00.378Z,1010.46
2022-11-01T03:01:00.418Z,1010.46
2022-11-01T03:02:09.146Z,1010.46
2022-11-01T03:03:07.962Z,1010.46
2022-11-01T03:04:00.326Z,1010.38
2022-11-01T03:05:00.333Z,1010.41
2022-11-01T03:06:00.283Z,1010.37
2022-11-01T03:07:07.915Z,1010.42
2022-11-01T03:08:00.580Z,1010.43
2022-11-01T03:09:00.268Z,1010.49
2022-11-01T03:10:00.171Z,1010.42
2022-11-01T03:11:00.180Z,1010.46
2022-11-01T03:13:10.617Z,1010.49
2022-11-01T03:14:19.145Z,1010.56
2022-11-01T03:15:10.590Z,1010.55
2022-11-01T03:16:10.562Z,1010.54
2022-11-01T03:17:18.137Z,1010.50
2022-11-01T03:18:18.775Z,1010.49
2022-11-01T03:19:10.524Z,1010.50
2022-11-01T03:20:18.080Z,1010.47
2022-11-01T03:21:18.075Z,1010.46
2022-11-01T03:22:18.140Z,1010.44
2022-11-01T03:23:10.508Z,1010.41
2022-11-01T03:24:10.527Z,1010.43
2022-11-01T03:25:18.026Z,1010.33
2022-11-01T03:26:10.411Z,1010.40
2022-11-01T03:27:10.454Z,1010.42
2022-11-01T03:28:10.389Z,1010.40
2022-11-01T03:30:21.791Z,1010.37
2022-11-01T03:31:21.763Z,1010.38
2022-11-01T03:32:21.683Z,1010.37
2022-11-01T03:34:32.091Z,1010.28
2022-11-01T03:36:42.437Z,1010.28
2022-11-01T03:37:42.373Z,1010.23
2022-11-01T03:39:53.123Z,1010.22
2022-11-01T03:41:01.663Z,1010.21
2022-11-01T03:42:01.928Z,1010.15
2022-11-01T03:42:53.069Z,1010.17
2022-11-01T03:44:01.573Z,1010.16
2022-11-01T03:44:53.021Z,1010.10
2022-11-01T03:47:03.367Z,1010.03
2022-11-01T03:48:11.897Z,1010.11
2022-11-01T03:49:03.303Z,1010.13
2022-11-01T03:50:03.329Z,1010.15
2022-11-01T03:51:03.262Z,1010.22
2022-11-01T03:52:03.292Z,1010.13
2022-11-01T03:53:03.219Z,1010.16
2022-11-01T03:54:10.806Z,1010.24
2022-11-01T03:55:03.294Z,1010.21
2022-11-01T03:56:03.252Z,1010.19
2022-11-01T03:57:03.183Z,1010.18
2022-11-01T03:58:03.454Z,1010.19
2022-11-01T03:59:03.194Z,1010.23
2022-11-01T04:00:11.268Z,1010.19
2022-11-01T04:01:03.259Z,1010.20
2022-11-01T04:02:03.307Z,1010.31
2022-11-01T04:03:03.371Z,1010.24
2022-11-01T04:04:03.266Z,1010.26
2022-11-01T04:05:03.080Z,1010.24
2022-11-01T04:06:03.030Z,1010.20
2022-11-01T04:07:03.043Z,1010.18
2022-11-01T04:08:03.000Z,1010.24
2022-11-01T04:09:03.005Z,1010.30
2022-11-01T04:10:03.015Z,1010.39
2022-11-01T04:11:02.972Z,1010.49
2022-11-01T04:12:02.960Z,1010.52
2022-11-01T04:13:03.186Z,1010.48
2022-11-01T04:14:02.968Z,1010.49
2022-11-01T04:15:02.937Z,1010.50
2022-11-01T04:16:10.623Z,1010.47
2022-11-01T04:17:03.029Z,1010.46
2022-11-01T04:18:03.051Z,1010.43
2022-11-01T04:19:02.979Z,1010.45
2022-11-01T04:20:02.992Z,1010.44
2022-11-01T04:21:02.935Z,1010.37
2022-11-01T04:22:02.848Z,1010.33
2022-11-01T04:23:03.292Z,1010.28
2022-11-01T04:24:10.550Z,1010.16
2022-11-01T04:25:02.923Z,1010.27
2022-11-01T04:26:02.909Z,1010.15
2022-11-01T04:27:02.885Z,1010.11
2022-11-01T04:28:02.889Z,1010.21
2022-11-01T04:29:02.840Z,1010.19
2022-11-01T04:30:02.801Z,1010.28
2022-11-01T04:31:02.763Z,1010.29
2022-11-01T04:32:02.780Z,1010.29
2022-11-01T04:33:03.052Z,1010.28
2022-11-01T04:34:02.727Z,1010.25
2022-11-01T04:35:02.784Z,1010.24
2022-11-01T04:36:12.123Z,1010.26
2022-11-01T04:37:02.776Z,1010.26
2022-11-01T04:38:02.930Z,1010.29
2022-11-01T04:39:02.846Z,1010.26
2022-11-01T04:40:02.789Z,1010.29
2022-11-01T04:41:02.693Z,1010.22
2022-11-01T04:42:02.646Z,1010.12
2022-11-01T04:43:02.636Z,1010.16
2022-11-01T04:44:02.618Z,1010.03
2022-11-01T04:45:02.608Z,1010.12
2022-11-01T04:46:02.644Z,1010.11
2022-11-01T04:48:13.110Z,1009.97
2022-11-01T04:49:13.069Z,1010.03
2022-11-01T04:50:13.065Z,1010.03
2022-11-01T04:51:13.031Z,1010.03
2022-11-01T04:52:12.945Z,1010.04
2022-11-01T04:53:12.914Z,1010.00
2022-11-01T04:54:12.881Z,1009.95
2022-11-01T04:55:12.897Z,1009.92
2022-11-01T04:56:20.553Z,1009.87
2022-11-01T04:57:12.979Z,1009.75
2022-11-01T04:58:23.703Z,1009.77
2022-11-01T04:59:20.567Z,1009.62
2022-11-01T05:00:22.809Z,1009.59
2022-11-01T05:01:21.709Z,1009.56
2022-11-01T05:02:20.661Z,1009.60
2022-11-01T05:03:12.958Z,1009.70
2022-11-01T05:04:12.918Z,1009.75
2022-11-01T05:05:12.899Z,1009.71
2022-11-01T05:07:23.271Z,1009.53
2022-11-01T05:08:31.737Z,1009.52
2022-11-01T05:09:23.272Z,1009.57
2022-11-01T05:10:23.195Z,1009.54
2022-11-01T05:11:30.724Z,1009.45
2022-11-01T05:12:32.440Z,1009.47
2022-11-01T05:13:23.115Z,1009.55
2022-11-01T05:14:23.236Z,1009.54
2022-11-01T05:15:23.123Z,1009.53
2022-11-01T05:16:23.210Z,1009.61
2022-11-01T05:17:22.983Z,1009.55
2022-11-01T05:18:22.972Z,1009.62
2022-11-01T05:19:22.996Z,1009.64
2022-11-01T05:20:22.968Z,1009.73
2022-11-01T05:21:22.947Z,1009.78
2022-11-01T05:22:22.925Z,1009.69
2022-11-01T05:23:22.944Z,1009.75
2022-11-01T05:24:22.900Z,1009.67
2022-11-01T05:25:32.717Z,1009.63
2022-11-01T05:26:24.009Z,1009.50
2022-11-01T05:27:23.025Z,1009.57
2022-11-01T05:29:35.522Z,1009.61
2022-11-01T05:30:35.316Z,1009.66
2022-11-01T05:31:35.259Z,1009.71
2022-11-01T05:32:44.761Z,1009.80
2022-11-01T05:33:35.080Z,1009.87
2022-11-01T05:34:35.227Z,1009.86
2022-11-01T05:35:35.109Z,1009.84
2022-11-01T05:36:35.002Z,1009.86
2022-11-01T05:37:34.977Z,1009.87
2022-11-01T05:38:34.945Z,1010.00
2022-11-01T05:39:35.127Z,1010.04
2022-11-01T05:40:34.923Z,1010.09
2022-11-01T05:41:34.887Z,1010.09
2022-11-01T05:42:34.985Z,1010.12
2022-11-01T05:43:34.882Z,1010.01
2022-11-01T05:44:34.887Z,1010.04
2022-11-01T05:45:34.864Z,1009.94
2022-11-01T05:46:34.851Z,1009.97
2022-11-01T05:47:34.826Z,1009.98
2022-11-01T05:48:34.827Z,1009.98
2022-11-01T05:49:34.856Z,1009.89
2022-11-01T05:50:35.081Z,1009.87
2022-11-01T05:51:34.937Z,1009.84
2022-11-01T05:52:35.015Z,1009.87
2022-11-01T05:53:34.933Z,1009.78
2022-11-01T05:54:36.870Z,1009.90
2022-11-01T05:55:38.146Z,1009.87
2022-11-01T05:56:37.569Z,1009.91
2022-11-01T05:57:38.579Z,1009.96
2022-11-01T06:05:17.358Z,1009.77
2022-11-01T06:06:20.912Z,1009.72
2022-11-01T06:07:19.178Z,1009.82
2022-11-01T06:08:19.121Z,1009.78
2022-11-01T06:09:17.647Z,1009.70
2022-11-01T06:10:16.975Z,1009.71
2022-11-01T06:11:16.776Z,1009.76
2022-11-01T06:12:17.135Z,1009.76
2022-11-01T06:13:16.789Z,1009.70
2022-11-01T06:14:16.853Z,1009.73
2022-11-01T06:15:16.712Z,1009.76
2022-11-01T06:16:19.276Z,1009.79
2022-11-01T06:17:17.010Z,1009.81
2022-11-01T06:18:16.747Z,1009.76
2022-11-01T06:19:16.725Z,1009.73
2022-11-01T06:20:16.696Z,1009.71
2022-11-01T06:25:01.523Z,1009.73
2022-11-01T06:26:00.967Z,1009.71
2022-11-01T06:27:02.151Z,1009.80
2022-11-01T06:28:01.536Z,1009.82
2022-11-01T06:29:03.735Z,1009.79
2022-11-01T06:30:01.012Z,1009.87
2022-11-01T06:33:38.904Z,1009.83
2022-11-01T06:34:53.333Z,1009.81
2022-11-01T06:35:32.319Z,1009.73
2022-11-01T06:36:32.416Z,1009.88
2022-11-01T06:37:33.946Z,1009.89
2022-11-01T06:39:18.897Z,1009.92
2022-11-01T06:49:16.434Z,1009.90
2022-11-01T06:50:13.784Z,1009.89
2022-11-01T06:56:43.661Z,1009.98
2022-11-01T06:57:43.086Z,1009.97
2022-11-01T06:58:51.011Z,1009.95
2022-11-01T06:59:46.891Z,1009.93
2022-11-01T07:07:57.289Z,1010.05
2022-11-01T07:10:31.421Z,1010.13
2022-11-01T07:11:31.859Z,1009.97
2022-11-01T07:12:31.358Z,1010.01
2022-11-01T07:13:32.387Z,1010.04
2022-11-01T07:14:32.835Z,1010.08
2022-11-01T07:15:31.470Z,1010.14
2022-11-01T07:16:32.088Z,1010.19
2022-11-01T07:17:32.887Z,1010.16
2022-11-01T07:18:32.074Z,1010.24
2022-11-01T07:19:31.156Z,1010.27
2022-11-01T07:20:31.036Z,1010.36
2022-11-01T07:21:30.975Z,1010.37
2022-11-01T07:22:30.897Z,1010.42
2022-11-01T07:23:30.876Z,1010.42
2022-11-01T07:24:39.581Z,1010.50
2022-11-01T07:25:39.549Z,1010.50
2022-11-01T07:26:31.043Z,1010.55
2022-11-01T07:27:30.905Z,1010.48
2022-11-01T07:28:30.840Z,1010.49
2022-11-01T07:30:42.303Z,1010.54
2022-11-01T07:31:51.907Z,1010.62
2022-11-01T07:32:52.914Z,1010.64
2022-11-01T07:33:50.811Z,1010.69
2022-11-01T07:34:50.763Z,1010.76
2022-11-01T07:36:52.559Z,1010.82
2022-11-01T07:38:06.528Z,1010.79
2022-11-01T07:40:03.912Z,1010.71
2022-11-01T07:41:14.341Z,1010.69
2022-11-01T07:42:12.094Z,1010.73
2022-11-01T07:43:13.666Z,1010.72
2022-11-01T07:44:12.085Z,1010.69
2022-11-01T07:46:15.224Z,1010.62
2022-11-01T07:47:23.753Z,1010.65
2022-11-01T07:49:26.873Z,1010.58
2022-11-01T07:51:37.525Z,1010.51
2022-11-01T07:52:47.554Z,1010.59
2022-11-01T07:53:45.732Z,1010.63
2022-11-01T07:54:47.383Z,1010.66
2022-11-01T07:55:44.961Z,1010.63
2022-11-01T07:56:37.413Z,1010.57
2022-11-01T07:58:48.799Z,1010.66
2022-11-01T07:59:48.768Z,1010.58
2022-11-01T08:00:48.733Z,1010.56
2022-11-01T08:01:48.766Z,1010.58
2022-11-01T08:02:48.681Z,1010.62
2022-11-01T08:03:48.654Z,1010.58
2022-11-01T08:04:48.655Z,1010.48
2022-11-01T08:05:48.638Z,1010.43
2022-11-01T08:06:52.039Z,1010.42
2022-11-01T08:07:48.622Z,1010.45
2022-11-01T08:08:48.574Z,1010.49
2022-11-01T08:09:48.563Z,1010.49
2022-11-01T08:10:48.570Z,1010.47
2022-11-01T08:11:48.549Z,1010.48
2022-11-01T08:12:48.532Z,1010.53
2022-11-01T08:13:48.530Z,1010.53
2022-11-01T08:14:56.105Z,1010.50
2022-11-01T08:15:48.581Z,1010.55
2022-11-01T08:16:48.569Z,1010.59
2022-11-01T08:17:48.499Z,1010.70
2022-11-01T08:18:48.474Z,1010.74
2022-11-01T08:19:57.072Z,1010.71
2022-11-01T08:20:48.516Z,1010.65
2022-11-01T08:21:48.453Z,1010.67
2022-11-01T08:22:48.511Z,1010.76
2022-11-01T08:23:48.406Z,1010.77
2022-11-01T08:24:48.446Z,1010.86
2022-11-01T08:25:48.395Z,1010.89
2022-11-01T08:26:48.390Z,1010.92
2022-11-01T08:27:48.389Z,1010.80
2022-11-01T08:28:48.359Z,1010.80
2022-11-01T08:29:48.353Z,1010.75
2022-11-01T08:30:48.330Z,1010.80
2022-11-01T08:31:48.317Z,1010.80
2022-11-01T08:32:48.316Z,1010.79
2022-11-01T08:33:48.305Z,1010.81
2022-11-01T08:34:56.806Z,1010.85
2022-11-01T08:35:50.653Z,1010.78
2022-11-01T08:36:48.551Z,1010.82
2022-11-01T08:39:00.882Z,1010.77
2022-11-01T08:40:00.858Z,1010.70
2022-11-01T08:41:01.143Z,1010.79
2022-11-01T08:43:21.878Z,1010.74
2022-11-01T08:44:22.004Z,1010.84
2022-11-01T08:45:21.845Z,1010.82
2022-11-01T08:46:21.837Z,1010.92
2022-11-01T08:48:47.299Z,1010.98
2022-11-01T08:49:47.219Z,1010.95
2022-11-01T08:50:56.997Z,1010.88
2022-11-01T08:51:54.843Z,1010.93
2022-11-01T08:53:59.633Z,1010.81
2022-11-01T08:56:12.273Z,1010.74
2022-11-01T08:57:20.131Z,1010.74
2022-11-01T08:58:20.701Z,1010.78
2022-11-01T08:59:19.704Z,1010.83
2022-11-01T09:00:23.153Z,1010.86
2022-11-01T09:01:12.169Z,1010.85
2022-11-01T09:02:12.197Z,1010.80
2022-11-01T09:03:12.074Z,1010.81
2022-11-01T09:04:21.769Z,1010.75
2022-11-01T09:06:23.473Z,1010.73
2022-11-01T09:07:23.495Z,1010.65
2022-11-01T09:09:34.803Z,1010.61
2022-11-01T09:10:44.051Z,1010.68
2022-11-01T09:12:46.173Z,1010.75
2022-11-01T09:13:56.208Z,1010.75
2022-11-01T09:14:55.737Z,1010.72
2022-11-01T09:18:07.517Z,1010.56
2022-11-01T09:19:17.452Z,1010.43
2022-11-01T09:20:07.525Z,1010.47
2022-11-01T09:22:18.667Z,1010.55
2022-11-01T09:23:18.565Z,1010.62
2022-11-01T09:25:31.106Z,1010.71
2022-11-01T09:26:39.514Z,1010.79
2022-11-01T09:27:31.033Z,1010.84
2022-11-01T09:28:33.853Z,1010.88
2022-11-01T09:29:31.114Z,1010.93
2022-11-01T09:30:30.925Z,1010.97
2022-11-01T09:31:30.905Z,1010.94
2022-11-01T09:32:30.911Z,1010.97
2022-11-01T09:33:30.918Z,1010.99
2022-11-01T09:34:30.892Z,1010.95
2022-11-01T09:35:30.870Z,1010.99
2022-11-01T09:36:30.863Z,1011.04
2022-11-01T09:37:30.885Z,1011.13
2022-11-01T09:38:30.841Z,1011.14
2022-11-01T09:39:30.842Z,1011.15
2022-11-01T09:40:30.812Z,1011.24
2022-11-01T09:41:30.810Z,1011.20
2022-11-01T09:42:30.788Z,1011.14
2022-11-01T09:43:30.802Z,1011.11
2022-11-01T09:44:30.772Z,1011.17
2022-11-01T09:45:30.755Z,1011.15
2022-11-01T09:46:30.756Z,1011.16
2022-11-01T09:47:30.750Z,1011.18
2022-11-01T09:48:30.717Z,1011.15
2022-11-01T09:49:30.757Z,1011.20
2022-11-01T09:50:30.709Z,1011.26
2022-11-01T09:51:39.245Z,1011.26
2022-11-01T09:52:40.658Z,1011.32
2022-11-01T09:53:38.337Z,1011.32
2022-11-01T09:54:30.768Z,1011.34
2022-11-01T09:55:30.690Z,1011.42
2022-11-01T09:56:30.742Z,1011.39
2022-11-01T09:57:39.750Z,1011.33
2022-11-01T09:58:30.714Z,1011.29
2022-11-01T09:59:30.660Z,1011.34
2022-11-01T10:00:30.588Z,1011.25
2022-11-01T10:01:38.284Z,1011.26
2022-11-01T10:02:30.649Z,1011.34
2022-11-01T10:04:50.154Z,1011.41
2022-11-01T10:05:50.685Z,1011.37
2022-11-01T10:06:48.565Z,1011.39
2022-11-01T10:08:52.349Z,1011.36
2022-11-01T10:09:52.308Z,1011.25
2022-11-01T10:10:52.244Z,1011.20
2022-11-01T10:11:52.262Z,1011.22
2022-11-01T10:12:52.218Z,1011.21
2022-11-01T10:13:52.203Z,1011.05
2022-11-01T10:14:52.205Z,1010.99
2022-11-01T10:16:01.893Z,1011.02
2022-11-01T10:17:00.214Z,1011.01
2022-11-01T10:17:52.902Z,1010.97
2022-11-01T10:18:52.344Z,1010.92
2022-11-01T10:19:52.305Z,1010.89
2022-11-01T10:20:52.146Z,1010.88
2022-11-01T10:21:52.119Z,1010.88
2022-11-01T10:22:52.114Z,1010.89
2022-11-01T10:23:52.119Z,1010.84
2022-11-01T10:24:52.155Z,1010.85
2022-11-01T10:25:52.088Z,1010.86
2022-11-01T10:26:52.092Z,1010.98
2022-11-01T10:27:52.057Z,1011.06
2022-11-01T10:28:52.064Z,1011.14
2022-11-01T10:29:52.106Z,1011.25
2022-11-01T10:30:52.082Z,1011.32
2022-11-01T10:31:52.069Z,1011.33
2022-11-01T10:32:52.100Z,1011.46
2022-11-01T10:33:52.145Z,1011.42
2022-11-01T10:34:52.001Z,1011.43
2022-11-01T10:35:51.997Z,1011.41
2022-11-01T10:36:51.974Z,1011.44
2022-11-01T10:38:04.205Z,1011.43
2022-11-01T10:39:48.284Z,1011.39
2022-11-01T10:39:55.497Z,1011.39
2022-11-01T10:40:51.956Z,1011.40
2022-11-01T10:41:52.253Z,1011.42
2022-11-01T10:42:51.961Z,1011.44
